createdAt,value
2023-04-27T00:02:35.767Z,12.74
2023-04-27T00:07:55.495Z,12.73
2023-04-27T00:13:14.741Z,12.73
2023-04-27T00:18:34.123Z,12.73
2023-04-27T00:23:53.829Z,12.72
2023-04-27T00:29:13.584Z,12.73
2023-04-27T00:34:32.851Z,12.72
2023-04-27T00:39:52.574Z,12.72
2023-04-27T00:45:12.056Z,12.72
2023-04-27T00:50:31.541Z,12.72
2023-04-27T00:55:50.980Z,12.72
2023-04-27T01:01:10.560Z,12.72
2023-04-27T01:06:30.105Z,12.71
2023-04-27T01:11:49.889Z,12.71
2023-04-27T01:17:09.015Z,12.7
2023-04-27T01:22:27.768Z,12.7
2023-04-27T01:27:46.899Z,12.7
2023-04-27T01:33:06.178Z,12.7
2023-04-27T01:38:25.206Z,12.7
2023-04-27T01:43:44.601Z,12.7
2023-04-27T01:49:04.081Z,12.69
2023-04-27T01:54:23.049Z,12.7
2023-04-27T01:59:42.497Z,12.69
2023-04-27T02:05:02.027Z,12.69
2023-04-27T02:10:21.540Z,12.69
2023-04-27T02:15:40.375Z,12.68
2023-04-27T02:21:00.175Z,12.68
2023-04-27T02:26:19.756Z,12.68
2023-04-27T02:31:39.226Z,12.68
2023-04-27T02:36:58.516Z,12.68
2023-04-27T02:42:17.716Z,12.67
2023-04-27T02:47:36.854Z,12.67
2023-04-27T02:52:56.477Z,12.67
2023-04-27T02:58:16.197Z,12.67
2023-04-27T03:03:35.278Z,12.66
2023-04-27T03:08:54.325Z,12.66
2023-04-27T03:14:13.567Z,12.66
2023-04-27T03:19:32.548Z,12.66
2023-04-27T03:24:52.249Z,12.65
2023-04-27T03:30:11.953Z,12.66
2023-04-27T03:35:31.023Z,12.65
2023-04-27T03:40:59.801Z,12.65
2023-04-27T03:51:30.059Z,12.64
2023-04-27T03:56:49.642Z,12.64
2023-04-27T04:02:09.349Z,12.64
2023-04-27T04:07:28.391Z,12.64
2023-04-27T04:12:48.175Z,12.63
2023-04-27T04:18:07.970Z,12.63
2023-04-27T04:23:27.236Z,12.63
2023-04-27T04:28:46.077Z,12.64
2023-04-27T04:34:05.125Z,12.66
2023-04-27T04:39:24.374Z,12.69
2023-04-27T04:44:43.671Z,12.71
2023-04-27T04:50:03.140Z,12.72
2023-04-27T04:55:22.833Z,12.74
2023-04-27T05:00:42.182Z,12.76
2023-04-27T05:06:01.638Z,12.8
2023-04-27T05:11:21.229Z,12.84
2023-04-27T05:16:40.905Z,12.91
2023-04-27T05:22:00.688Z,13
2023-04-27T05:27:19.801Z,13.09
2023-04-27T05:32:38.793Z,13.17
2023-04-27T05:37:57.851Z,13.26
2023-04-27T05:43:17.292Z,13.38
2023-04-27T05:48:36.881Z,13.5
2023-04-27T05:53:56.471Z,13.63
2023-04-27T05:59:15.765Z,13.72
2023-04-27T06:04:34.373Z,13.81
2023-04-27T06:09:53.315Z,13.88
2023-04-27T06:15:12.456Z,13.95
2023-04-27T06:20:31.324Z,14.02
2023-04-27T06:25:50.156Z,14.07
2023-04-27T06:31:09.093Z,14.14
2023-04-27T06:36:28.515Z,14.2
2023-04-27T06:41:47.591Z,14.25
2023-04-27T06:47:06.665Z,14.3
2023-04-27T06:52:26.178Z,14.37
2023-04-27T06:57:45.144Z,14.36
2023-04-27T07:03:04.620Z,14.36
2023-04-27T07:08:23.567Z,14.36
2023-04-27T07:13:43.483Z,14.35
2023-04-27T07:19:02.112Z,14.34
2023-04-27T07:24:21.438Z,14.35
2023-04-27T07:29:40.648Z,14.38
2023-04-27T07:35:00.358Z,14.38
2023-04-27T07:40:19.834Z,14.39
2023-04-27T07:45:38.743Z,14.42
2023-04-27T07:50:58.076Z,14.39
2023-04-27T07:56:17.111Z,14.38
2023-04-27T08:01:36.140Z,14.41
2023-04-27T08:06:55.746Z,14.42
2023-04-27T08:12:14.848Z,14.44
2023-04-27T08:17:33.707Z,14.41
2023-04-27T08:22:53.225Z,14.42
2023-04-27T08:33:32.300Z,14.39
2023-04-27T08:38:51.777Z,14.4
2023-04-27T08:44:11.535Z,14.4
2023-04-27T08:49:30.927Z,14.38
2023-04-27T08:54:49.862Z,14.42
2023-04-27T09:00:09.502Z,14.38
2023-04-27T09:05:29.072Z,14.4
2023-04-27T09:10:48.179Z,14.43
2023-04-27T09:16:07.655Z,14.39
2023-04-27T09:21:26.755Z,14.39
2023-04-27T09:26:46.384Z,14.43
2023-04-27T09:32:05.653Z,14.4
2023-04-27T09:37:24.358Z,14.46
2023-04-27T09:42:43.774Z,14.4
2023-04-27T09:48:02.578Z,14.39
2023-04-27T09:53:21.432Z,14.45
2023-04-27T09:58:40.970Z,14.39
2023-04-27T10:04:00.709Z,14.4
2023-04-27T10:09:19.768Z,14.39
2023-04-27T10:14:38.813Z,14.41
2023-04-27T10:19:58.648Z,14.4
2023-04-27T10:25:16.965Z,14.4
2023-04-27T10:30:35.809Z,14.39
2023-04-27T10:35:55.157Z,14.4
2023-04-27T10:41:14.316Z,14.41
2023-04-27T10:46:33.284Z,14.39
2023-04-27T10:51:52.804Z,14.4
2023-04-27T10:57:11.592Z,14.4
2023-04-27T11:02:30.576Z,14.41
2023-04-27T11:07:49.696Z,14.41
2023-04-27T11:13:08.946Z,14.4
2023-04-27T11:18:28.070Z,14.39
2023-04-27T11:23:47.506Z,14.42
2023-04-27T11:29:06.467Z,14.48
2023-04-27T11:34:25.893Z,14.4
2023-04-27T11:39:44.790Z,14.39
2023-04-27T11:45:04.341Z,14.39
2023-04-27T11:50:22.867Z,14.41
2023-04-27T11:55:42.342Z,14.4
2023-04-27T12:01:01.735Z,14.39
2023-04-27T12:06:32.886Z,14.4
2023-04-27T12:11:40.290Z,14.4
2023-04-27T12:16:59.835Z,14.4
2023-04-27T12:22:18.774Z,14.4
2023-04-27T12:32:57.140Z,14.39
2023-04-27T12:38:16.073Z,14.39
2023-04-27T12:43:35.686Z,14.48
2023-04-27T12:48:54.436Z,14.39
2023-04-27T12:54:13.779Z,14.41
2023-04-27T12:59:32.945Z,14.4
2023-04-27T13:04:52.244Z,14.39
2023-04-27T13:10:11.415Z,14.39
2023-04-27T13:15:30.970Z,14.4
2023-04-27T13:20:50.156Z,14.39
2023-04-27T13:26:34.084Z,14.41
2023-04-27T13:31:53.599Z,14.39
2023-04-27T13:37:12.689Z,14.4
2023-04-27T13:42:31.727Z,14.4
2023-04-27T13:47:50.475Z,14.4
2023-04-27T13:53:09.601Z,14.41
2023-04-27T13:58:28.987Z,14.4
2023-04-27T14:03:47.978Z,14.39
2023-04-27T14:09:06.624Z,14.4
2023-04-27T14:14:25.742Z,14.4
2023-04-27T14:19:44.590Z,14.4
2023-04-27T14:25:03.298Z,14.42
2023-04-27T14:30:22.748Z,14.39
2023-04-27T14:35:41.660Z,14.41
2023-04-27T14:41:02.003Z,14.4
2023-04-27T14:46:21.107Z,14.4
2023-04-27T14:51:38.687Z,14.39
2023-04-27T14:56:58.793Z,14.39
2023-04-27T15:02:17.140Z,14.4
2023-04-27T15:07:35.786Z,14.39
2023-04-27T15:12:54.898Z,14.39
2023-04-27T15:18:14.057Z,14.38
2023-04-27T15:23:33.506Z,14.39
2023-04-27T15:28:52.223Z,14.39
2023-04-27T15:34:11.086Z,14.38
2023-04-27T15:39:30.141Z,14.39
2023-04-27T15:44:49.452Z,14.39
2023-04-27T15:50:08.355Z,14.39
2023-04-27T15:55:27.149Z,14.4
2023-04-27T16:00:46.301Z,14.42
2023-04-27T16:06:05.716Z,14.4
2023-04-27T16:11:24.761Z,14.39
2023-04-27T16:16:43.503Z,14.39
2023-04-27T16:22:02.788Z,14.4
2023-04-27T16:27:22.219Z,14.39
2023-04-27T16:32:41.334Z,14.41
2023-04-27T16:38:00.474Z,14.39
2023-04-27T16:43:19.622Z,14.39
2023-04-27T16:48:39.152Z,14.4
2023-04-27T16:53:58.125Z,14.4
2023-04-27T16:59:17.412Z,14.4
2023-04-27T17:04:36.770Z,14.39
2023-04-27T17:09:56.109Z,14.39
2023-04-27T17:15:14.932Z,14.39
2023-04-27T17:20:33.980Z,14.39
2023-04-27T17:25:52.807Z,14.39
2023-04-27T17:31:11.918Z,14.38
2023-04-27T17:36:31.331Z,14.38
2023-04-27T17:41:50.251Z,13.92
2023-04-27T17:47:09.513Z,13.32
2023-04-27T17:52:28.391Z,13.22
2023-04-27T17:57:47.516Z,13.14
2023-04-27T18:03:07.159Z,13.07
2023-04-27T18:08:26.393Z,13.01
2023-04-27T18:13:45.627Z,12.95
2023-04-27T18:19:05.057Z,12.9
2023-04-27T18:24:24.051Z,12.88
2023-04-27T18:29:43.513Z,12.86
2023-04-27T18:35:02.719Z,12.86
2023-04-27T18:40:22.322Z,12.85
2023-04-27T18:45:41.375Z,12.84
2023-04-27T18:51:00.280Z,12.84
2023-04-27T18:56:19.805Z,12.84
2023-04-27T19:01:39.042Z,12.84
2023-04-27T19:12:17.795Z,12.83
2023-04-27T19:17:37.013Z,12.83
2023-04-27T19:22:56.544Z,12.83
2023-04-27T19:28:15.656Z,12.83
2023-04-27T19:33:34.943Z,12.83
2023-04-27T19:38:54.248Z,12.83
2023-04-27T19:44:13.331Z,12.82
2023-04-27T19:49:32.443Z,12.83
2023-04-27T19:54:51.929Z,12.82
2023-04-27T20:00:11.020Z,12.82
2023-04-27T20:05:30.846Z,12.82
2023-04-27T20:10:49.882Z,12.82
2023-04-27T20:16:08.851Z,12.82
2023-04-27T20:21:27.654Z,12.82
2023-04-27T20:26:46.493Z,12.81
2023-04-27T20:32:05.746Z,12.81
2023-04-27T20:37:25.197Z,12.81
2023-04-27T20:42:44.777Z,12.81
2023-04-27T20:53:22.580Z,12.8
2023-04-27T20:58:51.956Z,12.8
2023-04-27T21:04:01.394Z,12.8
2023-04-27T21:09:20.355Z,12.8
2023-04-27T21:14:39.203Z,12.8
2023-04-27T21:19:58.527Z,12.8
2023-04-27T21:25:17.878Z,12.79
2023-04-27T21:30:36.877Z,12.79
2023-04-27T21:35:56.421Z,12.79
2023-04-27T21:41:15.954Z,12.79
2023-04-27T21:46:34.701Z,12.79
2023-04-27T21:51:53.956Z,12.79
2023-04-27T21:57:12.858Z,12.78
2023-04-27T22:02:32.138Z,12.78
2023-04-27T22:07:51.299Z,12.78
2023-04-27T22:13:18.605Z,12.78
2023-04-27T22:18:29.190Z,12.77
2023-04-27T22:23:48.355Z,12.78
2023-04-27T22:29:07.903Z,12.77
2023-04-27T22:34:26.817Z,12.78
2023-04-27T22:39:46.090Z,12.76
2023-04-27T22:45:04.922Z,12.76
2023-04-27T22:50:24.372Z,12.77
2023-04-27T22:55:43.823Z,12.77
2023-04-27T23:01:02.727Z,12.77
2023-04-27T23:06:21.957Z,12.76
2023-04-27T23:11:41.725Z,12.76
2023-04-27T23:17:01.067Z,12.76
2023-04-27T23:22:20.137Z,12.76
2023-04-27T23:27:39.726Z,12.75
2023-04-27T23:33:00.978Z,12.76
2023-04-27T23:38:18.521Z,12.76
2023-04-27T23:43:38.415Z,12.75
2023-04-27T23:48:58.508Z,12.74
2023-04-27T23:54:17.855Z,12.74
2023-04-27T23:59:36.755Z,12.75
